CMTO2: Little Washita River Nr Cement, OK

Data processed at Wed May 22 2019 23:50


All information presented herein is the property of the government of the United States of America and may be revised or deleted at any time without prior notice.
Dissemination of this information without the expressed written consent of the Public Affairs Office, Tulsa District U.S. Army Corps of Engineers is strictly prohibited.
These data are gathered electronically and, as presented, have not undergone any form of quality control. These data are not guaranteed to be valid or correct.
Go to home page.
Go to station list.
Go to home page.

Upstream stations:

Downstream station:
Previous Day
Next Day
Current Day
    
SHEF ID:       CMTO2     Little Washita River near Cement
STATION TYPE:  

               PRECIP     STAGE  RIV-FLOW  BAT-LOAD
                   in        ft       cfs      volt
              Ccp-Rev   Ccp-Rev   Ccp-Rev   Ccp-Rev
(US/Central)
05/22 00:00      0.00      6.57       327     12.49
05/22 01:00      0.00      6.50       319     12.49
05/22 02:00      0.00      6.44       312     12.49
05/22 03:00      0.00      6.38       305     12.49
05/22 04:00      0.00      6.32       298     12.41
05/22 05:00      0.00      6.25       290     12.41
05/22 06:00      0.00      6.21       286     12.41
05/22 07:00      0.00      6.16       280     12.41
05/22 08:00      0.00      6.13       277     12.49
05/22 09:00      0.00      6.07       270     12.73
05/22 10:00      0.00      6.03       266     12.81
05/22 11:00      0.00      5.99       261     13.05
05/22 12:00      0.00      5.94       255     13.37
05/22 13:00      0.00      5.90       250     12.97
05/22 14:00      0.00      5.81       238     12.89
05/22 15:00      0.00      5.74       229     12.89
05/22 16:00      0.00      5.67       220     12.81
05/22 17:00      0.01      5.60       211     12.81
05/22 18:00      0.00      5.54       204     12.81
05/22 19:00      0.01      5.43       191     12.81
05/22 20:00      0.00      5.39       186     12.73
05/22 21:00      0.00      5.36       182     12.65
05/22 22:00      0.00      5.35       181     12.65
05/22 23:00      ----      ----      ----      ----